Airport View

Enter AWOS ICAO identifier for current METAR.

ex. KFNL

KMVN 221656Z AUTO 19018G24KT 10SM OVC026 23/18 A2998 RMK AO2 SLP150 T02280178 PNO $

22 Oct 2017 17:02

Frequency: 113.8

Phone: 618-242-7933

Other Area AWOS: KENL - KSLO - KFWC - KFOA

TAF AMD KBLV 221620Z 2216/2322 25012KT 9999 OVC015 QNH2990INS BECMG 2216/2217 28010G15KT 9999 OVC007 QNH2992INS BECMG 2217/2218 30010G15KT 9999 OVC015 QNH2995INS BECMG 2223/2224 31009KT 9999 BKN015 OVC020 QNH2996INS BECMG 2306/2307 32009KT 9999 FEW025 SCT040 OVC060 QNH3001INS BECMG 2316/2317 28010G15KT 9999 SCT065 BKN090 QNH2982INS TX20/2221Z TN10/2308Z